Terminal Aerodrome Forecast
Issued by NWS

Home | Current Version | Previous Version | Text Only | Print | Product List | Glossary On
Versions: 1 2 3 4 5 6 7 8 9 10 11 12 13 14 15
281
FTUS44 KEPZ 281135
TAFTCS
TAF
KTCS 281135Z 2812/2912 33005KT P6SM SKC
     FM281500 04006KT P6SM FEW080 FEW250
     FM281900 08008G18KT P6SM FEW100 FEW250
     FM290400 23006KT P6SM SKC=

USA.gov is the U.S. government's official web portal to all federal, state and local government web resources and services.